• Join FlightAware (Why Join?)
  • Login
  • US Flag 
12:06AM EDT


 

Airport Tracker/Info


-or-


 

Live Flight TrackerFlight Track Log ✈ SWA1903 ✈ 13-May-2013 ✈ KBWI - KDTW

Flight Track Log - Related Links

Times and Time Zones

All times are in EDT time to prevent confusion due to time zone crossing. See the SWA1903 flight status page for this flight to view local times or setup timezone preferences in your user account.

Time Position Orientation Groundspeed Altitude Reporting Facility
EDT Latitude Longitude Course Direction KTS MPH feet Rate Location/Type
07:36AM 39.2000 -76.8000 288° West 203 234 5,400  Level Potomac TRACON
07:37AM 39.2167 -76.8667 288° West 235 270 8,600 3,300 Climbing Potomac TRACON
07:38AM 39.2500 -76.9333 303° West 263 303 11,400 3,000 Climbing Potomac TRACON
07:40AM 39.3058 -77.1286 290° West 308 354 17,100 2,880 Climbing Washington Center
07:41AM 39.3329 -77.2662 322° Northwest  Level FlightAware Approximate
07:41AM 39.3419 -77.2392 293° West 330 380 19,900  Level Washington Center
07:42AM 39.3819 -77.3556 294° West 343 395 22,600 2,520 Climbing Washington Center
07:43AM 39.4175 -77.4775 291° West 356 410 25,000 2,220 Climbing Washington Center
07:44AM 39.4572 -77.5994 293° West 361 415 27,000 960 Climbing Washington Center
07:45AM 39.4947 -77.7242 291° West 367 422 27,000  Level Washington Center
07:46AM 39.5342 -77.8492 292° West 373 429 27,000 720 Level Washington Center
07:47AM 39.5714 -77.9767 291° West 373 429 28,500 1,860 Climbing Washington Center
07:49AM 39.6575 -78.2506 292° West 370 426 32,900 1,380 Climbing Cleveland Center
07:50AM 39.6933 -78.3736 291° West 370 426 33,000  Climbing Cleveland Center
07:51AM 39.7292 -78.4992 290° West 370 426 33,000  Level Cleveland Center
07:52AM 39.7669 -78.6250 291° West 370 426 33,000  Level Cleveland Center
07:53AM 39.8167 -78.7425 299° West 370 426 33,000  Level Cleveland Center
07:54AM 39.8728 -78.8572 303° West 370 426 33,000  Level Cleveland Center
07:55AM 39.9372 -78.9883 303° West 376 433 33,000  Level Cleveland Center
07:56AM 39.9908 -79.1036 301° West 381 438 33,000  Level Cleveland Center
07:57AM 40.0467 -79.2217 302° West 386 444 33,000  Level Cleveland Center
07:58AM 40.1042 -79.3428 302° West 386 444 33,000  Level Cleveland Center
07:59AM 40.1597 -79.4639 301° West 386 444 33,000 -480 Level Cleveland Center
08:00AM 40.2150 -79.5853 301° West 386 444 32,100 -900 Descending Cleveland Center
08:01AM 40.2703 -79.7042 301° West 386 444 31,200 -960 Descending Cleveland Center
08:02AM 40.3272 -79.8261 302° West 386 444 30,200 -1,020 Descending Cleveland Center
08:03AM 40.3822 -79.9481 301° West 386 444 29,200 -1,020 Descending Cleveland Center
08:04AM 40.4267 -80.0486 300° West 381 438 28,200 -600 Descending Cleveland Center
08:05AM 40.4792 -80.1628 301° West 370 426 28,000 -120 Descending Cleveland Center
08:06AM 40.5294 -80.2772 300° West 364 419 28,000  Level Cleveland Center
08:07AM 40.5839 -80.3889 303° West 364 419 28,000  Level Cleveland Center
08:08AM 40.6403 -80.5175 300° West 364 419 28,000  Level Cleveland Center
08:09AM 40.6947 -80.6325 302° West 364 419 28,000  Level Cleveland Center
08:10AM 40.7467 -80.7283 306° West 359 413 28,000  Level Cleveland Center
08:11AM 40.8028 -80.8408 303° West 364 419 28,000  Level Cleveland Center
08:12AM 40.8586 -80.9536 303° West 364 419 28,000  Level Cleveland Center
08:13AM 40.9186 -81.0833 302° West 370 426 28,000  Level Cleveland Center
08:14AM 40.9744 -81.1964 303° West 370 426 28,000  Level Cleveland Center
08:15AM 41.0300 -81.3125 302° West 370 426 28,000 -240 Level Cleveland Center
08:16AM 41.0856 -81.4261 303° West 370 426 27,600 -720 Descending Cleveland Center
08:17AM 41.1328 -81.5206 304° West 363 418 26,600 -1,020 Descending Cleveland Center
08:18AM 41.1839 -81.6261 303° West 353 406 25,600 -1,020 Descending Cleveland Center
08:19AM 41.2372 -81.7317 304° West 348 400 24,600 -840 Descending Cleveland Center
08:20AM 41.2861 -81.8406 301° West 348 400 24,000 -300 Descending Cleveland Center
08:21AM 41.3389 -81.9494 303° West 348 400 24,000  Level Cleveland Center
08:22AM 41.3958 -82.0750 301° West 348 400 24,000 -420 Level Cleveland Center
08:23AM 41.4483 -82.1897 301° West 355 409 23,200 -960 Descending Cleveland Center
08:24AM 41.5050 -82.3106 302° West 373 429 22,100 -1,560 Descending Cleveland Center
08:25AM 41.5556 -82.4144 303° West 373 429 20,100 -2,280 Descending Cleveland Center
08:26AM 41.5878 -82.4764 305° West 366 421 18,700 -2,220 Descending Cleveland Center
08:26AM 41.6058 -82.5242 297° West 361 415 17,900 -2,520 Descending Cleveland Center
08:27AM 41.6622 -82.6428 302° West 355 409 15,000 -2,700 Descending Cleveland Center
08:28AM 41.7103 -82.7472 302° West 342 394 12,500 -1,500 Descending Cleveland Center
08:29AM 41.7689 -82.8328 313° West 328 377 12,000 -420 Descending Cleveland Center
08:29AM 41.7914 -82.8614 317° Northwest 312 359 12,000  Level Cleveland Center
08:30AM 41.8342 -82.9131 318° Northwest 318 366 12,000  Level Cleveland Center
08:30AM 41.8606 -82.9447 318° Northwest 313 360 12,000  Level Cleveland Center
08:31AM 41.8972 -82.9878 319° Northwest 312 359 12,000  Level Cleveland Center
08:31AM 41.9258 -83.0197 320° Northwest 310 357 12,000  Level Cleveland Center
08:32AM 41.9583 -83.0600 317° Northwest 305 351 12,000  Level Cleveland Center
08:33AM 41.9867 -83.0917 320° Northwest 264 304 12,000  Level Cleveland Center
08:33AM 42.0131 -83.1264 316° Northwest 285 328 12,000  Level Cleveland Center
08:34AM 42.0394 -83.1553 321° Northwest 248 285 12,000  Level Cleveland Center
08:34AM 42.0636 -83.1900 313° West 264 304 12,000 -540 Level Cleveland Center
08:35AM 42.1008 -83.2139 335° Northwest 261 300 11,500 -1,500 Descending Cleveland Center
08:35AM 42.1317 -83.2264 343° North 252 290 10,500 -1,980 Descending Cleveland Center
08:35AM 42.1628 -83.2361 347° North 268 308 9,700 -1,980 Descending Cleveland Center
08:36AM 42.2219 -83.1964 26° Northeast 267 307 7,900 -2,040 Descending Cleveland Center
08:38AM 42.2981 -83.1575 21° North 256 295 5,600 -2,280 Descending Cleveland Center
08:39AM 42.3231 -83.2400 292° West 225 259 3,100 -1,560 Descending Cleveland Center
08:40AM 42.2825 -83.2858 220° Southwest 174 200 2,500 -840 Descending Cleveland Center
08:41AM 42.2483 -83.3153 213° Southwest 137 158 1,400 -1,140 Descending Cleveland Center
08:43AM 42.2124 -83.3534 312° West  Level Estimated